F/V Liberty-s — FHKM — position and weather

sailwx.info

Track history (hours):
 
Tides and Currents Weather Stations Pressure Air Temp Water Temp Dewpoint Dewpoint Depression Visibility Wind Speed Wind Dir Waves Ship Positions

F/V Liberty-s

Last reported at 2018-May-25 22:30 UTC. Time now 2018-May-25 22:46 UTC.
Position N 47°45' W 003°55'.

Type: Fishing. MMSI: 228387000.

Date/timePositionNaut miles runAvg speedWind from/ knotsBaromVisibWave heightAir tempDewpointWater temp
2018-May-25 22:30N 47°45' W 003°55'4 8.1
2018-May-25 21:59N 47°40' W 003°54'4 8.0
2018-May-25 21:28N 47°36' W 003°54'4 8.1
2018-May-25 21:00N 47°33' W 003°54'6 3.8
2018-May-25 19:33N 47°27' W 003°57'0 3.5
2018-May-25 19:30N 47°27' W 003°57'2 2.7
2018-May-25 18:52N 47°26' W 003°55'4 2.4
2018-May-25 17:25N 47°30' W 003°55'6 1.9
2018-May-25 14:25N 47°34' W 004°01'1 3.4
2018-May-25 14:00N 47°33' W 003°59'2 3.4
2018-May-25 13:30N 47°33' W 003°57'2 3.4
2018-May-25 12:58N 47°32' W 003°55'2 3.6
2018-May-25 12:30N 47°32' W 003°52'1 0.8
2018-May-25 11:53N 47°32' W 003°52'1 3.1
2018-May-25 11:30N 47°32' W 003°54'1 2.6
2018-May-25 11:00N 47°30' W 003°53'3 1.2
2018-May-25 08:51N 47°31' W 003°57'1 3.5
2018-May-25 08:30N 47°30' W 003°57'1 2.4
2018-May-25 08:00N 47°28' W 003°57'2 3.5
2018-May-25 07:21N 47°26' W 003°58'1 3.4
2018-May-25 06:58N 47°25' W 003°59'2 3.4
2018-May-25 06:31N 47°24' W 003°60'2 3.3
2018-May-25 06:00N 47°22' W 004°00'1 2.6
2018-May-25 05:30N 47°22' W 004°02'2 3.6
2018-May-25 04:49N 47°24' W 004°01'1 3.5
2018-May-25 04:25N 47°26' W 004°00'1 3.5
2018-May-25 04:00N 47°27' W 003°59'1 1.1
2018-May-25 03:30N 47°27' W 003°58'2 3.3
2018-May-25 03:00N 47°26' W 003°58'2 3.2
2018-May-25 02:30N 47°24' W 003°57'2 3.4
2018-May-25 01:58N 47°24' W 003°54'2 3.4
2018-May-25 01:24N 47°24' W 003°51'1 3.5
2018-May-25 01:00N 47°24' W 003°49'2 3.3
2018-May-25 00:30N 47°26' W 003°49'2 3.5
2018-May-24 23:56N 47°27' W 003°52'2 3.6
2018-May-24 23:23N 47°28' W 003°54'1 3.5
2018-May-24 23:00N 47°29' W 003°56'2 3.3
2018-May-24 22:28N 47°30' W 003°58'4 2.8
2018-May-24 20:57N 47°28' W 004°04'1 3.3
2018-May-24 20:30N 47°27' W 004°04'2 3.3
2018-May-24 19:55N 47°25' W 004°03'1 3.2
2018-May-24 19:30N 47°24' W 004°01'1 2.9
2018-May-24 19:00N 47°25' W 003°59'2 3.2
2018-May-24 18:29N 47°26' W 003°57'2 3.3
2018-May-24 18:01N 47°27' W 003°56'2 3.6
2018-May-24 17:30N 47°28' W 003°54'1 1.8
2018-May-24 17:01N 47°27' W 003°53'2 3.4
2018-May-24 16:30N 47°26' W 003°53'2 3.3
2018-May-24 15:55N 47°24' W 003°56'1 3.3
2018-May-24 15:30N 47°24' W 003°57'2 3.2
2018-May-24 15:00N 47°22' W 003°59'16 1.6
2018-May-24 04:38N 47°36' W 004°11'19 6.3
2018-May-24 01:38N 47°52' W 003°55'1 7.7
2018-May-24 01:29N 47°51' W 003°56'4 8.1
2018-May-24 00:57N 47°47' W 003°55'4 8.2
2018-May-24 00:28N 47°43' W 003°54'4 8.1
2018-May-24 00:01N 47°39' W 003°52'4 8.1
2018-May-23 23:31N 47°36' W 003°50'4 8.0
2018-May-23 23:00N 47°32' W 003°48'4 7.9
2018-May-23 22:30N 47°28' W 003°46'4 7.7
2018-May-23 22:00N 47°25' W 003°44'4 7.8
2018-May-23 21:30N 47°21' W 003°41'4 7.8
2018-May-23 21:00N 47°17' W 003°39'4 7.9
2018-May-23 20:29N 47°13' W 003°38'4 8.0
2018-May-23 19:57N 47°09' W 003°36'8 3.4
2018-May-23 17:43N 47°02' W 003°33'1 3.3
2018-May-23 17:18N 47°01' W 003°32'2 3.3
2018-May-23 16:45N 46°59' W 003°31'1 3.7
2018-May-23 16:27N 46°58' W 003°30'4 0.5
2018-May-23 07:38N 47°02' W 003°32'1 3.2
2018-May-23 07:22N 47°03' W 003°32'4 3.2
2018-May-23 06:06N 47°07' W 003°33'0 3.2
2018-May-23 06:00N 47°07' W 003°34'3 3.2
2018-May-23 05:12N 47°09' W 003°36'1 3.3
2018-May-23 04:58N 47°10' W 003°37'1 3.2
2018-May-23 04:30N 47°11' W 003°36'2 3.3
2018-May-23 03:59N 47°13' W 003°36'1 2.1
2018-May-23 03:30N 47°14' W 003°36'1 3.0
2018-May-23 03:00N 47°12' W 003°36'2 3.3
2018-May-23 02:31N 47°11' W 003°36'5 2.8
2018-May-23 00:36N 47°10' W 003°44'2 3.4
2018-May-23 00:09N 47°11' W 003°45'1 3.6
2018-May-22 23:59N 47°12' W 003°45'2 3.5
2018-May-22 23:28N 47°13' W 003°42'2 3.3
2018-May-22 23:00N 47°13' W 003°40'1 2.8
2018-May-22 22:30N 47°13' W 003°38'1 2.5
2018-May-22 22:00N 47°13' W 003°37'2 3.2
2018-May-22 21:26N 47°11' W 003°36'2 3.1
2018-May-22 20:56N 47°09' W 003°37'1 3.3
2018-May-22 20:30N 47°08' W 003°37'3 2.0
2018-May-22 18:49N 47°10' W 003°34'2 3.2
2018-May-22 18:19N 47°12' W 003°34'1 3.7
2018-May-22 17:56N 47°13' W 003°36'0 1.0
2018-May-22 17:31N 47°13' W 003°36'2 3.4
2018-May-22 17:00N 47°11' W 003°36'2 3.4
2018-May-22 16:30N 47°10' W 003°37'2 3.5
2018-May-22 16:00N 47°08' W 003°37'2 3.1
2018-May-22 15:30N 47°07' W 003°38'2 3.3
2018-May-22 15:01N 47°06' W 003°41'2 3.0
2018-May-22 14:30N 47°07' W 003°42'2 3.6
2018-May-22 13:52N 47°09' W 003°44'3 2.8
2018-May-22 12:47N 47°12' W 003°46'1 3.3
2018-May-22 12:29N 47°13' W 003°47'4 3.0
2018-May-22 11:08N 47°14' W 003°52'1 3.2
2018-May-22 10:40N 47°14' W 003°54'1 3.4
2018-May-22 10:31N 47°14' W 003°55'5 3.3
2018-May-22 09:03N 47°17' W 004°00'1 3.4
2018-May-22 08:54N 47°18' W 004°00'1 3.5
2018-May-22 08:30N 47°19' W 004°01'1 2.3
2018-May-22 08:00N 47°20' W 004°01'2 3.3
2018-May-22 07:30N 47°21' W 003°60'2 3.3
2018-May-22 07:01N 47°23' W 003°59'2 3.3
2018-May-22 06:31N 47°24' W 003°58'2 3.3
2018-May-22 06:00N 47°26' W 003°58'2 3.2
2018-May-22 05:30N 47°27' W 003°58'2 3.3
2018-May-22 05:00N 47°29' W 003°58'4 3.2
2018-May-22 03:54N 47°32' W 003°60'2 5.4
2018-May-22 03:30N 47°34' W 003°59'4 8.4
2018-May-22 03:00N 47°38' W 003°55'4 7.5
2018-May-22 02:30N 47°41' W 003°54'7 8.0
2018-May-22 01:38N 47°48' W 003°56'4 1.7
2018-May-21 23:27N 47°52' W 003°55'3 7.6
2018-May-21 23:00N 47°48' W 003°56'6 7.8
2018-May-21 22:15N 47°43' W 003°55'2 7.4
2018-May-21 21:58N 47°40' W 003°54'3 7.4
2018-May-21 21:30N 47°37' W 003°55'4 7.7
2018-May-21 21:00N 47°33' W 003°56'2 4.8
2018-May-21 20:30N 47°31' W 003°57'2 3.2
2018-May-21 20:01N 47°30' W 003°56'1 2.5
2018-May-21 19:27N 47°28' W 003°55'1 3.2
2018-May-21 19:00N 47°28' W 003°53'1 2.5
2018-May-21 18:31N 47°29' W 003°51'2 3.5
2018-May-21 17:58N 47°30' W 003°54'2 3.6
2018-May-21 17:24N 47°31' W 003°56'1 3.1
2018-May-21 17:01N 47°30' W 003°58'1 2.5
2018-May-21 16:30N 47°29' W 003°58'2 3.1
2018-May-21 15:51N 47°28' W 004°01'2 3.4
2018-May-21 15:21N 47°28' W 004°03'1 3.2
2018-May-21 14:58N 47°29' W 004°04'2 3.4
2018-May-21 14:29N 47°31' W 004°03'3 3.5
2018-May-21 13:30N 47°34' W 004°02'1 3.0
2018-May-21 13:01N 47°33' W 004°01'1 2.3
2018-May-21 12:31N 47°32' W 004°00'2 3.4
2018-May-21 12:00N 47°31' W 003°58'2 3.3
2018-May-21 11:31N 47°30' W 003°57'2 3.4
2018-May-21 11:01N 47°29' W 003°54'2 3.3
2018-May-21 10:30N 47°29' W 003°52'2 2.4
2018-May-21 09:50N 47°30' W 003°53'4 2.3
2018-May-21 07:57N 47°31' W 003°59'1 3.3
2018-May-21 07:30N 47°30' W 003°57'1 3.0
2018-May-21 07:00N 47°30' W 003°55'3 2.5
2018-May-21 05:41N 47°32' W 003°59'1 3.5
2018-May-21 05:30N 47°32' W 004°00'4 3.2
2018-May-21 04:13N 47°33' W 004°06'1 3.5
2018-May-21 03:50N 47°31' W 004°07'1 3.5
2018-May-21 03:31N 47°30' W 004°07'1 2.6
2018-May-21 03:00N 47°29' W 004°06'2 3.5
2018-May-21 02:30N 47°28' W 004°04'2 3.5
2018-May-21 02:01N 47°26' W 004°03'2 3.5
2018-May-21 01:31N 47°25' W 004°01'2 3.6
2018-May-21 01:00N 47°24' W 003°58'2 3.6
2018-May-21 00:27N 47°24' W 003°55'2 3.7
2018-May-21 00:00N 47°24' W 003°53'2 3.6
2018-May-20 23:31N 47°24' W 003°50'2 3.3
2018-May-20 23:01N 47°25' W 003°49'9 3.0
2018-May-20 20:11N 47°30' W 003°60'1 3.5
2018-May-20 20:00N 47°30' W 004°01'3 3.6
2018-May-20 19:17N 47°30' W 004°04'1 2.5
2018-May-20 18:57N 47°29' W 004°05'1 3.1
2018-May-20 18:31N 47°28' W 004°03'2 3.1
2018-May-20 18:00N 47°28' W 004°01'2 3.1
2018-May-20 17:28N 47°28' W 003°58'1 3.1
2018-May-20 17:00N 47°30' W 003°58'1 1.5
2018-May-20 16:30N 47°30' W 003°58'2 3.4
2018-May-20 16:00N 47°30' W 003°56'1 2.9
2018-May-20 15:30N 47°31' W 003°55'2 3.7
2018-May-20 14:59N 47°31' W 003°58'2 3.7
2018-May-20 14:28N 47°32' W 004°00'2 3.6
2018-May-20 13:55N 47°33' W 004°03'1 3.5
2018-May-20 13:30N 47°33' W 004°05'2 3.5
2018-May-20 13:00N 47°31' W 004°06'1 2.4
2018-May-20 12:31N 47°31' W 004°04'2 3.5
2018-May-20 12:01N 47°31' W 004°02'2 3.4
2018-May-20 11:30N 47°30' W 003°59'2 3.4
2018-May-20 11:01N 47°29' W 003°57'2 3.4
2018-May-20 10:31N 47°29' W 003°55'2 3.3
2018-May-20 10:00N 47°28' W 003°52'4 2.2
2018-May-20 08:25N 47°31' W 003°56'4 3.1
2018-May-20 07:14N 47°29' W 004°01'1 3.5
2018-May-20 07:00N 47°29' W 004°02'2 1.5
2018-May-20 06:02N 47°30' W 004°04'0 3.3
2018-May-20 06:00N 47°30' W 004°04'2 3.3
2018-May-20 05:31N 47°30' W 004°02'2 3.3
2018-May-20 05:00N 47°29' W 003°59'1 2.9
2018-May-20 04:29N 47°28' W 003°59'2 3.3
2018-May-20 04:00N 47°28' W 004°01'2 3.4
2018-May-20 03:30N 47°28' W 004°04'1 2.2
2018-May-20 03:01N 47°28' W 004°05'2 3.5
2018-May-20 02:29N 47°27' W 004°07'3 2.1
2018-May-20 01:03N 47°24' W 004°09'0 4.1
2018-May-20 01:00N 47°24' W 004°09'2 3.6
2018-May-20 00:29N 47°25' W 004°06'2 3.6
2018-May-20 00:01N 47°25' W 004°03'2 3.6
2018-May-19 23:23N 47°25' W 004°00'1 3.6
2018-May-19 22:59N 47°26' W 003°58'6 2.3
2018-May-19 20:26N 47°29' W 004°05'1 3.1
2018-May-19 19:59N 47°28' W 004°05'1 3.1
2018-May-19 19:30N 47°26' W 004°05'2 3.2
2018-May-19 18:57N 47°24' W 004°06'1 3.2
2018-May-19 18:31N 47°23' W 004°07'2 3.4
2018-May-19 18:01N 47°22' W 004°08'2 3.7
2018-May-19 17:30N 47°20' W 004°09'4 3.1
2018-May-19 16:18N 47°18' W 004°13'1 3.7
2018-May-19 16:01N 47°17' W 004°15'2 3.7
2018-May-19 15:30N 47°16' W 004°17'6 0.9
2018-May-19 09:40N 47°18' W 004°25'1 1.2
2018-May-19 08:35N 47°19' W 004°24'2 3.5
2018-May-19 08:07N 47°20' W 004°22'0 3.5
2018-May-19 08:00N 47°20' W 004°22'2 3.4
2018-May-19 07:27N 47°21' W 004°20'4 3.5
2018-May-19 06:18N 47°25' W 004°16'2 3.4
2018-May-19 05:42N 47°26' W 004°15'21 6.2
2018-May-19 02:23N 47°45' W 004°03'7 3.5
2018-May-19 00:19N 47°51' W 003°56'3 8.1
2018-May-19 00:00N 47°48' W 003°56'4 8.1
2018-May-18 23:30N 47°44' W 003°55'5 8.0
2018-May-18 22:53N 47°39' W 003°53'3 7.4
2018-May-18 22:30N 47°37' W 003°54'4 7.3
2018-May-18 22:00N 47°33' W 003°56'4 5.7
2018-May-18 21:23N 47°30' W 003°58'1 2.1
2018-May-18 21:00N 47°30' W 003°59'3 3.3
2018-May-18 20:10N 47°30' W 004°03'2 3.4
2018-May-18 19:39N 47°29' W 004°06'1 3.3
2018-May-18 19:30N 47°29' W 004°06'1 2.5
2018-May-18 18:58N 47°28' W 004°06'1 3.1
2018-May-18 18:30N 47°28' W 004°04'2 3.2
2018-May-18 18:01N 47°28' W 004°02'2 3.1
2018-May-18 17:31N 47°28' W 003°59'2 3.6
2018-May-18 17:01N 47°29' W 003°58'1 2.9
2018-May-18 16:30N 47°30' W 003°60'2 3.7
2018-May-18 16:00N 47°31' W 004°02'2 3.7
2018-May-18 15:23N 47°32' W 004°05'2 0.4
2018-May-18 11:18N 47°33' W 004°07'1 3.5
2018-May-18 10:59N 47°33' W 004°05'2 3.6
2018-May-18 10:30N 47°34' W 004°03'4 2.4
2018-May-18 09:00N 47°35' W 004°08'0 0.7
2018-May-18 08:25N 47°35' W 004°08'2 3.2
2018-May-18 07:54N 47°36' W 004°07'1 3.2
2018-May-18 07:28N 47°36' W 004°05'2 3.3
2018-May-18 07:00N 47°35' W 004°03'2 3.2
2018-May-18 06:27N 47°34' W 004°01'2 3.3
2018-May-18 05:57N 47°33' W 003°59'1 3.4
2018-May-18 05:30N 47°32' W 003°57'3 3.5
2018-May-18 04:46N 47°31' W 003°54'1 3.4
2018-May-18 04:29N 47°30' W 003°53'7 5.2
2018-May-18 03:07N 47°37' W 003°53'1 7.6
2018-May-18 02:56N 47°39' W 003°53'3 7.4
2018-May-18 02:31N 47°42' W 003°54'4 7.6
2018-May-18 01:56N 47°46' W 003°56'5 2.7
2018-May-18 00:07N 47°51' W 003°56'1 8.2
2018-May-18 00:01N 47°50' W 003°56'4 8.2
2018-May-17 23:30N 47°46' W 003°55'4 7.9
2018-May-17 23:00N 47°42' W 003°54'4 7.5
2018-May-17 22:30N 47°38' W 003°54'4 7.5
2018-May-17 22:00N 47°35' W 003°55'4 7.3
2018-May-17 21:29N 47°31' W 003°56'2 3.5
2018-May-17 21:00N 47°29' W 003°56'2 3.3
2018-May-17 20:31N 47°28' W 003°54'2 3.2
2018-May-17 20:01N 47°26' W 003°54'3 2.7
2018-May-17 19:03N 47°27' W 003°57'0 3.7
2018-May-17 18:59N 47°27' W 003°57'2 3.6
2018-May-17 18:30N 47°29' W 003°57'2 3.7
2018-May-17 18:00N 47°31' W 003°57'3 3.5
2018-May-17 17:12N 47°33' W 003°59'2 3.9
2018-May-17 16:38N 47°34' W 004°02'0 0.9
2018-May-17 16:27N 47°34' W 004°02'2 3.1
2018-May-17 15:46N 47°32' W 004°01'1 3.2
2018-May-17 15:30N 47°31' W 003°60'2 3.2
2018-May-17 15:00N 47°30' W 003°58'2 3.3
2018-May-17 14:29N 47°29' W 003°56'2 3.3
2018-May-17 13:50N 47°28' W 003°53'1 3.1
2018-May-17 13:30N 47°28' W 003°52'2 3.4
2018-May-17 13:00N 47°30' W 003°51'9 1.5
2018-May-17 06:41N 47°33' W 004°04'1 3.3
2018-May-17 06:30N 47°33' W 004°03'3 3.2
2018-May-17 05:30N 47°30' W 004°00'2 3.2
2018-May-17 05:00N 47°29' W 003°59'1 2.8
2018-May-17 04:30N 47°28' W 003°59'2 0.9
2018-May-17 02:20N 47°27' W 004°01'2 3.3
2018-May-17 01:49N 47°26' W 003°59'1 3.3
2018-May-17 01:30N 47°25' W 003°58'2 3.3
2018-May-17 00:52N 47°24' W 003°56'1 3.4
2018-May-17 00:28N 47°24' W 003°54'2 3.4
2018-May-17 00:00N 47°24' W 003°51'2 3.4
2018-May-16 23:30N 47°25' W 003°49'2 3.0
2018-May-16 22:59N 47°26' W 003°49'2 3.1
2018-May-16 22:30N 47°27' W 003°51'23 1.8
2018-May-16 09:32N 47°23' W 004°25'0 3.4
2018-May-16 09:29N 47°23' W 004°24'3 1.3
2018-May-16 06:48N 47°20' W 004°23'8 3.3
2018-May-16 04:19N 47°26' W 004°16'1 3.3
2018-May-16 03:54N 47°27' W 004°14'3 6.5
2018-May-16 03:29N 47°30' W 004°13'4 7.5
2018-May-16 03:00N 47°33' W 004°11'5 7.5
2018-May-16 02:21N 47°38' W 004°09'3 7.4
2018-May-16 01:57N 47°41' W 004°08'3 7.2
2018-May-16 01:29N 47°43' W 004°05'3 6.9
2018-May-16 01:00N 47°46' W 004°02'4 7.5
2018-May-16 00:27N 47°49' W 003°58'  
Track history (hours):
 
Tides and Currents Weather Stations Pressure Air Temp Water Temp Dewpoint Dewpoint Depression Visibility Wind Speed Wind Dir Waves Ship Positions

F/V Liberty-s

Last reported at 2018-May-25 22:30 UTC. Time now 2018-May-25 22:46 UTC.
Position N 47°45' W 003°55'.

Type: Fishing. MMSI: 228387000.

Date/timePositionNaut miles runAvg speedWind from/ knotsBaromVisibWave heightAir tempDewpointWater temp
2018-May-25 22:30N 47°45' W 003°55'4 8.1
2018-May-25 21:59N 47°40' W 003°54'4 8.0
2018-May-25 21:28N 47°36' W 003°54'4 8.1
2018-May-25 21:00N 47°33' W 003°54'6 3.8
2018-May-25 19:33N 47°27' W 003°57'0 3.5
2018-May-25 19:30N 47°27' W 003°57'2 2.7
2018-May-25 18:52N 47°26' W 003°55'4 2.4
2018-May-25 17:25N 47°30' W 003°55'6 1.9
2018-May-25 14:25N 47°34' W 004°01'1 3.4
2018-May-25 14:00N 47°33' W 003°59'2 3.4
2018-May-25 13:30N 47°33' W 003°57'2 3.4
2018-May-25 12:58N 47°32' W 003°55'2 3.6
2018-May-25 12:30N 47°32' W 003°52'1 0.8
2018-May-25 11:53N 47°32' W 003°52'1 3.1
2018-May-25 11:30N 47°32' W 003°54'1 2.6
2018-May-25 11:00N 47°30' W 003°53'3 1.2
2018-May-25 08:51N 47°31' W 003°57'1 3.5
2018-May-25 08:30N 47°30' W 003°57'1 2.4
2018-May-25 08:00N 47°28' W 003°57'2 3.5
2018-May-25 07:21N 47°26' W 003°58'1 3.4
2018-May-25 06:58N 47°25' W 003°59'2 3.4
2018-May-25 06:31N 47°24' W 003°60'2 3.3
2018-May-25 06:00N 47°22' W 004°00'1 2.6
2018-May-25 05:30N 47°22' W 004°02'2 3.6
2018-May-25 04:49N 47°24' W 004°01'1 3.5
2018-May-25 04:25N 47°26' W 004°00'1 3.5
2018-May-25 04:00N 47°27' W 003°59'1 1.1
2018-May-25 03:30N 47°27' W 003°58'2 3.3
2018-May-25 03:00N 47°26' W 003°58'2 3.2
2018-May-25 02:30N 47°24' W 003°57'2 3.4
2018-May-25 01:58N 47°24' W 003°54'2 3.4
2018-May-25 01:24N 47°24' W 003°51'1 3.5
2018-May-25 01:00N 47°24' W 003°49'2 3.3
2018-May-25 00:30N 47°26' W 003°49'2 3.5
2018-May-24 23:56N 47°27' W 003°52'2 3.6
2018-May-24 23:23N 47°28' W 003°54'1 3.5
2018-May-24 23:00N 47°29' W 003°56'2 3.3
2018-May-24 22:28N 47°30' W 003°58'4 2.8
2018-May-24 20:57N 47°28' W 004°04'1 3.3
2018-May-24 20:30N 47°27' W 004°04'2 3.3
2018-May-24 19:55N 47°25' W 004°03'1 3.2
2018-May-24 19:30N 47°24' W 004°01'1 2.9
2018-May-24 19:00N 47°25' W 003°59'2 3.2
2018-May-24 18:29N 47°26' W 003°57'2 3.3
2018-May-24 18:01N 47°27' W 003°56'2 3.6
2018-May-24 17:30N 47°28' W 003°54'1 1.8
2018-May-24 17:01N 47°27' W 003°53'2 3.4
2018-May-24 16:30N 47°26' W 003°53'2 3.3
2018-May-24 15:55N 47°24' W 003°56'1 3.3
2018-May-24 15:30N 47°24' W 003°57'2 3.2
2018-May-24 15:00N 47°22' W 003°59'16 1.6
2018-May-24 04:38N 47°36' W 004°11'19 6.3
2018-May-24 01:38N 47°52' W 003°55'1 7.7
2018-May-24 01:29N 47°51' W 003°56'4 8.1
2018-May-24 00:57N 47°47' W 003°55'4 8.2
2018-May-24 00:28N 47°43' W 003°54'4 8.1
2018-May-24 00:01N 47°39' W 003°52'4 8.1
2018-May-23 23:31N 47°36' W 003°50'4 8.0
2018-May-23 23:00N 47°32' W 003°48'4 7.9
2018-May-23 22:30N 47°28' W 003°46'4 7.7
2018-May-23 22:00N 47°25' W 003°44'4 7.8
2018-May-23 21:30N 47°21' W 003°41'4 7.8
2018-May-23 21:00N 47°17' W 003°39'4 7.9
2018-May-23 20:29N 47°13' W 003°38'4 8.0
2018-May-23 19:57N 47°09' W 003°36'8 3.4
2018-May-23 17:43N 47°02' W 003°33'1 3.3
2018-May-23 17:18N 47°01' W 003°32'2 3.3
2018-May-23 16:45N 46°59' W 003°31'1 3.7
2018-May-23 16:27N 46°58' W 003°30'4 0.5
2018-May-23 07:38N 47°02' W 003°32'1 3.2
2018-May-23 07:22N 47°03' W 003°32'4 3.2
2018-May-23 06:06N 47°07' W 003°33'0 3.2
2018-May-23 06:00N 47°07' W 003°34'3 3.2
2018-May-23 05:12N 47°09' W 003°36'1 3.3
2018-May-23 04:58N 47°10' W 003°37'1 3.2
2018-May-23 04:30N 47°11' W 003°36'2 3.3
2018-May-23 03:59N 47°13' W 003°36'1 2.1
2018-May-23 03:30N 47°14' W 003°36'1 3.0
2018-May-23 03:00N 47°12' W 003°36'2 3.3
2018-May-23 02:31N 47°11' W 003°36'5 2.8
2018-May-23 00:36N 47°10' W 003°44'2 3.4
2018-May-23 00:09N 47°11' W 003°45'1 3.6
2018-May-22 23:59N 47°12' W 003°45'2 3.5
2018-May-22 23:28N 47°13' W 003°42'2 3.3
2018-May-22 23:00N 47°13' W 003°40'1 2.8
2018-May-22 22:30N 47°13' W 003°38'1 2.5
2018-May-22 22:00N 47°13' W 003°37'2 3.2
2018-May-22 21:26N 47°11' W 003°36'2 3.1
2018-May-22 20:56N 47°09' W 003°37'1 3.3
2018-May-22 20:30N 47°08' W 003°37'3 2.0
2018-May-22 18:49N 47°10' W 003°34'2 3.2
2018-May-22 18:19N 47°12' W 003°34'1 3.7
2018-May-22 17:56N 47°13' W 003°36'0 1.0
2018-May-22 17:31N 47°13' W 003°36'2 3.4
2018-May-22 17:00N 47°11' W 003°36'2 3.4
2018-May-22 16:30N 47°10' W 003°37'2 3.5
2018-May-22 16:00N 47°08' W 003°37'2 3.1
2018-May-22 15:30N 47°07' W 003°38'2 3.3
2018-May-22 15:01N 47°06' W 003°41'2 3.0
2018-May-22 14:30N 47°07' W 003°42'2 3.6
2018-May-22 13:52N 47°09' W 003°44'3 2.8
2018-May-22 12:47N 47°12' W 003°46'1 3.3
2018-May-22 12:29N 47°13' W 003°47'4 3.0
2018-May-22 11:08N 47°14' W 003°52'1 3.2
2018-May-22 10:40N 47°14' W 003°54'1 3.4
2018-May-22 10:31N 47°14' W 003°55'5 3.3
2018-May-22 09:03N 47°17' W 004°00'1 3.4
2018-May-22 08:54N 47°18' W 004°00'1 3.5
2018-May-22 08:30N 47°19' W 004°01'1 2.3
2018-May-22 08:00N 47°20' W 004°01'2 3.3
2018-May-22 07:30N 47°21' W 003°60'2 3.3
2018-May-22 07:01N 47°23' W 003°59'2 3.3
2018-May-22 06:31N 47°24' W 003°58'2 3.3
2018-May-22 06:00N 47°26' W 003°58'2 3.2
2018-May-22 05:30N 47°27' W 003°58'2 3.3
2018-May-22 05:00N 47°29' W 003°58'4 3.2
2018-May-22 03:54N 47°32' W 003°60'2 5.4
2018-May-22 03:30N 47°34' W 003°59'4 8.4
2018-May-22 03:00N 47°38' W 003°55'4 7.5
2018-May-22 02:30N 47°41' W 003°54'7 8.0
2018-May-22 01:38N 47°48' W 003°56'4 1.7
2018-May-21 23:27N 47°52' W 003°55'3 7.6
2018-May-21 23:00N 47°48' W 003°56'6 7.8
2018-May-21 22:15N 47°43' W 003°55'2 7.4
2018-May-21 21:58N 47°40' W 003°54'3 7.4
2018-May-21 21:30N 47°37' W 003°55'4 7.7
2018-May-21 21:00N 47°33' W 003°56'2 4.8
2018-May-21 20:30N 47°31' W 003°57'2 3.2
2018-May-21 20:01N 47°30' W 003°56'1 2.5
2018-May-21 19:27N 47°28' W 003°55'1 3.2
2018-May-21 19:00N 47°28' W 003°53'1 2.5
2018-May-21 18:31N 47°29' W 003°51'2 3.5
2018-May-21 17:58N 47°30' W 003°54'2 3.6
2018-May-21 17:24N 47°31' W 003°56'1 3.1
2018-May-21 17:01N 47°30' W 003°58'1 2.5
2018-May-21 16:30N 47°29' W 003°58'2 3.1
2018-May-21 15:51N 47°28' W 004°01'2 3.4
2018-May-21 15:21N 47°28' W 004°03'1 3.2
2018-May-21 14:58N 47°29' W 004°04'2 3.4
2018-May-21 14:29N 47°31' W 004°03'3 3.5
2018-May-21 13:30N 47°34' W 004°02'1 3.0
2018-May-21 13:01N 47°33' W 004°01'1 2.3
2018-May-21 12:31N 47°32' W 004°00'2 3.4
2018-May-21 12:00N 47°31' W 003°58'2 3.3
2018-May-21 11:31N 47°30' W 003°57'2 3.4
2018-May-21 11:01N 47°29' W 003°54'2 3.3
2018-May-21 10:30N 47°29' W 003°52'2 2.4
2018-May-21 09:50N 47°30' W 003°53'4 2.3
2018-May-21 07:57N 47°31' W 003°59'1 3.3
2018-May-21 07:30N 47°30' W 003°57'1 3.0
2018-May-21 07:00N 47°30' W 003°55'3 2.5
2018-May-21 05:41N 47°32' W 003°59'1 3.5
2018-May-21 05:30N 47°32' W 004°00'4 3.2
2018-May-21 04:13N 47°33' W 004°06'1 3.5
2018-May-21 03:50N 47°31' W 004°07'1 3.5
2018-May-21 03:31N 47°30' W 004°07'1 2.6
2018-May-21 03:00N 47°29' W 004°06'2 3.5
2018-May-21 02:30N 47°28' W 004°04'2 3.5
2018-May-21 02:01N 47°26' W 004°03'2 3.5
2018-May-21 01:31N 47°25' W 004°01'2 3.6
2018-May-21 01:00N 47°24' W 003°58'2 3.6
2018-May-21 00:27N 47°24' W 003°55'2 3.7
2018-May-21 00:00N 47°24' W 003°53'2 3.6
2018-May-20 23:31N 47°24' W 003°50'2 3.3
2018-May-20 23:01N 47°25' W 003°49'9 3.0
2018-May-20 20:11N 47°30' W 003°60'1 3.5
2018-May-20 20:00N 47°30' W 004°01'3 3.6
2018-May-20 19:17N 47°30' W 004°04'1 2.5
2018-May-20 18:57N 47°29' W 004°05'1 3.1
2018-May-20 18:31N 47°28' W 004°03'2 3.1
2018-May-20 18:00N 47°28' W 004°01'2 3.1
2018-May-20 17:28N 47°28' W 003°58'1 3.1
2018-May-20 17:00N 47°30' W 003°58'1 1.5
2018-May-20 16:30N 47°30' W 003°58'2 3.4
2018-May-20 16:00N 47°30' W 003°56'1 2.9
2018-May-20 15:30N 47°31' W 003°55'2 3.7
2018-May-20 14:59N 47°31' W 003°58'2 3.7
2018-May-20 14:28N 47°32' W 004°00'2 3.6
2018-May-20 13:55N 47°33' W 004°03'1 3.5
2018-May-20 13:30N 47°33' W 004°05'2 3.5
2018-May-20 13:00N 47°31' W 004°06'1 2.4
2018-May-20 12:31N 47°31' W 004°04'2 3.5
2018-May-20 12:01N 47°31' W 004°02'2 3.4
2018-May-20 11:30N 47°30' W 003°59'2 3.4
2018-May-20 11:01N 47°29' W 003°57'2 3.4
2018-May-20 10:31N 47°29' W 003°55'2 3.3
2018-May-20 10:00N 47°28' W 003°52'4 2.2
2018-May-20 08:25N 47°31' W 003°56'4 3.1
2018-May-20 07:14N 47°29' W 004°01'1 3.5
2018-May-20 07:00N 47°29' W 004°02'2 1.5
2018-May-20 06:02N 47°30' W 004°04'0 3.3
2018-May-20 06:00N 47°30' W 004°04'2 3.3
2018-May-20 05:31N 47°30' W 004°02'2 3.3
2018-May-20 05:00N 47°29' W 003°59'1 2.9
2018-May-20 04:29N 47°28' W 003°59'2 3.3
2018-May-20 04:00N 47°28' W 004°01'2 3.4
2018-May-20 03:30N 47°28' W 004°04'1 2.2
2018-May-20 03:01N 47°28' W 004°05'2 3.5
2018-May-20 02:29N 47°27' W 004°07'3 2.1
2018-May-20 01:03N 47°24' W 004°09'0 4.1
2018-May-20 01:00N 47°24' W 004°09'2 3.6
2018-May-20 00:29N 47°25' W 004°06'2 3.6
2018-May-20 00:01N 47°25' W 004°03'2 3.6
2018-May-19 23:23N 47°25' W 004°00'1 3.6
2018-May-19 22:59N 47°26' W 003°58'6 2.3
2018-May-19 20:26N 47°29' W 004°05'1 3.1
2018-May-19 19:59N 47°28' W 004°05'1 3.1
2018-May-19 19:30N 47°26' W 004°05'2 3.2
2018-May-19 18:57N 47°24' W 004°06'1 3.2
2018-May-19 18:31N 47°23' W 004°07'2 3.4
2018-May-19 18:01N 47°22' W 004°08'2 3.7
2018-May-19 17:30N 47°20' W 004°09'4 3.1
2018-May-19 16:18N 47°18' W 004°13'1 3.7
2018-May-19 16:01N 47°17' W 004°15'2 3.7
2018-May-19 15:30N 47°16' W 004°17'6 0.9
2018-May-19 09:40N 47°18' W 004°25'1 1.2
2018-May-19 08:35N 47°19' W 004°24'2 3.5
2018-May-19 08:07N 47°20' W 004°22'0 3.5
2018-May-19 08:00N 47°20' W 004°22'2 3.4
2018-May-19 07:27N 47°21' W 004°20'4 3.5
2018-May-19 06:18N 47°25' W 004°16'2 3.4
2018-May-19 05:42N 47°26' W 004°15'21 6.2
2018-May-19 02:23N 47°45' W 004°03'7 3.5
2018-May-19 00:19N 47°51' W 003°56'3 8.1
2018-May-19 00:00N 47°48' W 003°56'4 8.1
2018-May-18 23:30N 47°44' W 003°55'5 8.0
2018-May-18 22:53N 47°39' W 003°53'3 7.4
2018-May-18 22:30N 47°37' W 003°54'4 7.3
2018-May-18 22:00N 47°33' W 003°56'4 5.7
2018-May-18 21:23N 47°30' W 003°58'1 2.1
2018-May-18 21:00N 47°30' W 003°59'3 3.3
2018-May-18 20:10N 47°30' W 004°03'2 3.4
2018-May-18 19:39N 47°29' W 004°06'1 3.3
2018-May-18 19:30N 47°29' W 004°06'1 2.5
2018-May-18 18:58N 47°28' W 004°06'1 3.1
2018-May-18 18:30N 47°28' W 004°04'2 3.2
2018-May-18 18:01N 47°28' W 004°02'2 3.1
2018-May-18 17:31N 47°28' W 003°59'2 3.6
2018-May-18 17:01N 47°29' W 003°58'1 2.9
2018-May-18 16:30N 47°30' W 003°60'2 3.7
2018-May-18 16:00N 47°31' W 004°02'2 3.7
2018-May-18 15:23N 47°32' W 004°05'2 0.4
2018-May-18 11:18N 47°33' W 004°07'1 3.5
2018-May-18 10:59N 47°33' W 004°05'2 3.6
2018-May-18 10:30N 47°34' W 004°03'4 2.4
2018-May-18 09:00N 47°35' W 004°08'0 0.7
2018-May-18 08:25N 47°35' W 004°08'2 3.2
2018-May-18 07:54N 47°36' W 004°07'1 3.2
2018-May-18 07:28N 47°36' W 004°05'2 3.3
2018-May-18 07:00N 47°35' W 004°03'2 3.2
2018-May-18 06:27N 47°34' W 004°01'2 3.3
2018-May-18 05:57N 47°33' W 003°59'1 3.4
2018-May-18 05:30N 47°32' W 003°57'3 3.5
2018-May-18 04:46N 47°31' W 003°54'1 3.4
2018-May-18 04:29N 47°30' W 003°53'7 5.2
2018-May-18 03:07N 47°37' W 003°53'1 7.6
2018-May-18 02:56N 47°39' W 003°53'3 7.4
2018-May-18 02:31N 47°42' W 003°54'4 7.6
2018-May-18 01:56N 47°46' W 003°56'5 2.7
2018-May-18 00:07N 47°51' W 003°56'1 8.2
2018-May-18 00:01N 47°50' W 003°56'4 8.2
2018-May-17 23:30N 47°46' W 003°55'4 7.9
2018-May-17 23:00N 47°42' W 003°54'4 7.5
2018-May-17 22:30N 47°38' W 003°54'4 7.5
2018-May-17 22:00N 47°35' W 003°55'4 7.3
2018-May-17 21:29N 47°31' W 003°56'2 3.5
2018-May-17 21:00N 47°29' W 003°56'2 3.3
2018-May-17 20:31N 47°28' W 003°54'2 3.2
2018-May-17 20:01N 47°26' W 003°54'3 2.7
2018-May-17 19:03N 47°27' W 003°57'0 3.7
2018-May-17 18:59N 47°27' W 003°57'2 3.6
2018-May-17 18:30N 47°29' W 003°57'2 3.7
2018-May-17 18:00N 47°31' W 003°57'3 3.5
2018-May-17 17:12N 47°33' W 003°59'2 3.9
2018-May-17 16:38N 47°34' W 004°02'0 0.9
2018-May-17 16:27N 47°34' W 004°02'2 3.1
2018-May-17 15:46N 47°32' W 004°01'1 3.2
2018-May-17 15:30N 47°31' W 003°60'2 3.2
2018-May-17 15:00N 47°30' W 003°58'2 3.3
2018-May-17 14:29N 47°29' W 003°56'2 3.3
2018-May-17 13:50N 47°28' W 003°53'1 3.1
2018-May-17 13:30N 47°28' W 003°52'2 3.4
2018-May-17 13:00N 47°30' W 003°51'9 1.5
2018-May-17 06:41N 47°33' W 004°04'1 3.3
2018-May-17 06:30N 47°33' W 004°03'3 3.2
2018-May-17 05:30N 47°30' W 004°00'2 3.2
2018-May-17 05:00N 47°29' W 003°59'1 2.8
2018-May-17 04:30N 47°28' W 003°59'2 0.9
2018-May-17 02:20N 47°27' W 004°01'2 3.3
2018-May-17 01:49N 47°26' W 003°59'1 3.3
2018-May-17 01:30N 47°25' W 003°58'2 3.3
2018-May-17 00:52N 47°24' W 003°56'1 3.4
2018-May-17 00:28N 47°24' W 003°54'2 3.4
2018-May-17 00:00N 47°24' W 003°51'2 3.4
2018-May-16 23:30N 47°25' W 003°49'2 3.0
2018-May-16 22:59N 47°26' W 003°49'2 3.1
2018-May-16 22:30N 47°27' W 003°51'23 1.8
2018-May-16 09:32N 47°23' W 004°25'0 3.4
2018-May-16 09:29N 47°23' W 004°24'3 1.3
2018-May-16 06:48N 47°20' W 004°23'8 3.3
2018-May-16 04:19N 47°26' W 004°16'1 3.3
2018-May-16 03:54N 47°27' W 004°14'3 6.5
2018-May-16 03:29N 47°30' W 004°13'4 7.5
2018-May-16 03:00N 47°33' W 004°11'5 7.5
2018-May-16 02:21N 47°38' W 004°09'3 7.4
2018-May-16 01:57N 47°41' W 004°08'3 7.2
2018-May-16 01:29N 47°43' W 004°05'3 6.9
2018-May-16 01:00N 47°46' W 004°02'4 7.5
2018-May-16 00:27N 47°49' W 003°58'  

Dump ship's entire track history